createdAt,value
2023-04-07T00:01:00.901Z,15.83
2023-04-07T00:03:28.123Z,14.40
2023-04-07T00:05:55.128Z,14.33
2023-04-07T00:08:22.221Z,15.63
2023-04-07T00:10:51.228Z,15.83
2023-04-07T00:13:18.189Z,14.87
2023-04-07T00:15:45.213Z,14.13
2023-04-07T00:18:12.110Z,15.23
2023-04-07T00:20:39.350Z,14.10
2023-04-07T00:23:06.402Z,17.80
2023-04-07T00:25:33.364Z,14.00
2023-04-07T00:28:00.219Z,15.23
2023-04-07T00:30:27.074Z,15.67
2023-04-07T00:32:59.306Z,14.90
2023-04-07T00:35:26.421Z,16.43
2023-04-07T00:37:53.544Z,15.10
2023-04-07T00:40:20.417Z,15.80
2023-04-07T00:42:47.195Z,14.07
2023-04-07T00:45:14.139Z,13.77
2023-04-07T00:47:41.345Z,15.23
2023-04-07T00:50:08.915Z,15.40
2023-04-07T00:52:36.401Z,14.17
2023-04-07T00:55:03.803Z,13.40
2023-04-07T00:57:30.614Z,14.23
2023-04-07T00:59:57.836Z,13.67
2023-04-07T01:03:02.387Z,15.30
2023-04-07T01:05:48.116Z,13.17
2023-04-07T01:08:33.472Z,13.53
2023-04-07T01:11:09.056Z,15.73
2023-04-07T01:13:46.343Z,14.70
2023-04-07T01:16:19.161Z,14.70
2023-04-07T01:18:48.929Z,12.40
2023-04-07T01:21:18.336Z,13.10
2023-04-07T01:23:57.617Z,12.63
2023-04-07T01:26:33.695Z,13.67
2023-04-07T01:29:33.246Z,14.67
2023-04-07T01:32:02.421Z,13.23
2023-04-07T01:34:32.063Z,14.07
2023-04-07T01:37:01.773Z,13.10
2023-04-07T01:39:29.448Z,14.37
2023-04-07T01:41:58.676Z,15.10
2023-04-07T01:44:26.520Z,13.53
2023-04-07T01:46:55.883Z,14.70
2023-04-07T01:49:25.545Z,14.37
2023-04-07T01:51:53.433Z,15.90
2023-04-07T01:54:22.034Z,12.73
2023-04-07T01:56:48.866Z,17.57
2023-04-07T01:59:15.824Z,15.10
2023-04-07T02:01:42.739Z,13.70
2023-04-07T02:04:26.426Z,12.70
2023-04-07T02:07:01.899Z,14.73
2023-04-07T02:09:32.196Z,14.90
2023-04-07T02:12:01.576Z,14.23
2023-04-07T02:14:29.392Z,13.73
2023-04-07T02:16:56.674Z,13.70
2023-04-07T02:19:23.740Z,13.47
2023-04-07T02:21:52.385Z,15.20
2023-04-07T02:24:22.554Z,12.70
2023-04-07T02:26:49.675Z,13.23
2023-04-07T02:29:16.699Z,16.23
2023-04-07T02:31:43.880Z,12.73
2023-04-07T02:34:10.984Z,13.07
2023-04-07T02:36:40.797Z,15.17
2023-04-07T02:39:12.745Z,12.67
2023-04-07T02:41:40.124Z,12.03
2023-04-07T02:44:07.030Z,13.13
2023-04-07T02:46:34.019Z,12.77
2023-04-07T02:49:01.291Z,13.10
2023-04-07T02:51:28.056Z,13.77
2023-04-07T02:53:55.661Z,11.70
2023-04-07T02:56:22.981Z,14.17
2023-04-07T02:58:50.029Z,13.67
2023-04-07T03:01:17.049Z,11.90
2023-04-07T03:03:45.290Z,11.97
2023-04-07T03:06:12.397Z,12.50
2023-04-07T03:08:39.395Z,12.50
2023-04-07T03:11:06.639Z,11.83
2023-04-07T03:13:33.715Z,11.90
2023-04-07T03:16:00.461Z,12.23
2023-04-07T03:18:27.373Z,11.30
2023-04-07T03:20:55.766Z,11.10
2023-04-07T03:23:24.353Z,12.13
2023-04-07T03:25:51.116Z,11.43
2023-04-07T03:28:18.073Z,11.07
2023-04-07T03:30:44.963Z,12.03
2023-04-07T03:33:12.617Z,10.57
2023-04-07T03:35:39.629Z,13.17
2023-04-07T03:38:06.593Z,10.10
2023-04-07T03:40:33.887Z,10.43
2023-04-07T03:43:01.554Z,11.03
2023-04-07T03:45:28.439Z,11.33
2023-04-07T03:47:55.755Z,10.10
2023-04-07T03:50:22.811Z,11.20
2023-04-07T03:52:49.704Z,10.60
2023-04-07T03:55:16.667Z,10.30
2023-04-07T03:57:44.344Z,10.00
2023-04-07T04:00:11.912Z,10.83
2023-04-07T04:02:38.979Z,10.23
2023-04-07T04:05:06.128Z,10.63
2023-04-07T04:07:33.895Z,12.87
2023-04-07T04:10:00.697Z,10.40
2023-04-07T04:12:27.653Z,9.73
2023-04-07T04:14:54.774Z,10.83
2023-04-07T04:17:21.804Z,10.47
2023-04-07T04:19:48.820Z,11.77
2023-04-07T04:22:15.806Z,12.20
2023-04-07T04:24:42.861Z,10.60
2023-04-07T04:27:09.817Z,12.50
2023-04-07T04:29:37.197Z,12.53
2023-04-07T04:32:04.347Z,9.57
2023-04-07T04:34:31.682Z,12.07
2023-04-07T04:36:58.614Z,10.63
2023-04-07T04:39:25.602Z,9.33
2023-04-07T04:41:52.628Z,9.63
2023-04-07T04:44:19.641Z,10.77
2023-04-07T04:46:46.769Z,10.23
2023-04-07T04:49:14.847Z,11.93
2023-04-07T04:51:42.087Z,10.67
2023-04-07T04:54:08.940Z,25.73
2023-04-07T04:56:36.335Z,9.30
2023-04-07T04:59:08.053Z,10.43
2023-04-07T05:01:34.989Z,10.30
2023-04-07T05:04:02.070Z,10.93
2023-04-07T05:06:31.322Z,9.40
2023-04-07T05:08:58.345Z,12.10
2023-04-07T05:11:25.275Z,8.70
2023-04-07T05:13:52.488Z,9.23
2023-04-07T05:16:19.653Z,11.60
2023-04-07T05:18:46.764Z,9.47
2023-04-07T05:21:13.823Z,10.00
2023-04-07T05:23:42.010Z,8.73
2023-04-07T05:26:08.843Z,9.50
2023-04-07T05:28:35.669Z,8.87
2023-04-07T05:31:02.622Z,8.97
2023-04-07T05:33:29.676Z,8.87
2023-04-07T05:35:56.634Z,8.80
2023-04-07T05:38:23.520Z,8.97
2023-04-07T05:40:50.999Z,8.33
2023-04-07T05:43:18.121Z,8.60
2023-04-07T05:45:45.045Z,8.10
2023-04-07T05:48:12.568Z,10.10
2023-04-07T05:50:39.397Z,8.40
2023-04-07T05:53:06.497Z,10.00
2023-04-07T05:55:34.652Z,8.30
2023-04-07T05:58:01.784Z,7.73
2023-04-07T06:00:28.654Z,8.07
2023-04-07T06:02:55.767Z,8.43
2023-04-07T06:05:22.624Z,7.43
2023-04-07T06:07:52.365Z,8.37
2023-04-07T06:10:19.399Z,7.07
2023-04-07T06:12:46.321Z,8.33
2023-04-07T06:15:13.492Z,8.97
2023-04-07T06:17:40.610Z,8.13
2023-04-07T06:20:07.989Z,7.23
2023-04-07T06:22:34.812Z,7.87
2023-04-07T06:25:01.598Z,9.13
2023-04-07T06:27:28.703Z,7.83
2023-04-07T06:29:57.082Z,7.13
2023-04-07T06:32:24.114Z,7.20
2023-04-07T06:34:50.939Z,8.57
2023-04-07T06:37:20.787Z,7.60
2023-04-07T06:39:47.898Z,7.87
2023-04-07T06:42:15.012Z,7.60
2023-04-07T06:44:42.116Z,6.53
2023-04-07T06:47:09.587Z,7.53
2023-04-07T06:49:37.569Z,7.03
2023-04-07T06:52:05.473Z,13.00
2023-04-07T06:54:32.497Z,10.10
2023-04-07T06:56:59.354Z,6.77
2023-04-07T06:59:26.557Z,7.07
2023-04-07T07:01:53.569Z,6.57
2023-04-07T07:04:20.768Z,8.23
2023-04-07T07:06:47.752Z,6.10
2023-04-07T07:09:14.450Z,7.73
2023-04-07T07:11:41.318Z,9.17
2023-04-07T07:14:08.262Z,7.67
2023-04-07T07:16:35.083Z,6.87
2023-04-07T07:19:01.992Z,6.90
2023-04-07T07:21:28.907Z,7.97
2023-04-07T07:23:55.861Z,8.03
2023-04-07T07:26:22.821Z,6.97
2023-04-07T07:28:49.804Z,6.67
2023-04-07T07:31:17.004Z,8.13
2023-04-07T07:33:46.237Z,7.80
2023-04-07T07:36:13.412Z,6.73
2023-04-07T07:38:40.782Z,7.37
2023-04-07T07:41:08.014Z,7.63
2023-04-07T07:43:35.095Z,8.20
2023-04-07T07:46:02.056Z,6.80
2023-04-07T07:48:29.284Z,9.00
2023-04-07T07:50:57.236Z,12.97
2023-04-07T07:53:24.184Z,9.20
2023-04-07T07:55:51.488Z,8.37
2023-04-07T07:58:18.585Z,7.10
2023-04-07T08:00:45.466Z,7.17
2023-04-07T08:03:12.436Z,7.80
2023-04-07T08:05:39.439Z,7.23
2023-04-07T08:08:06.326Z,7.90
2023-04-07T08:10:33.145Z,8.60
2023-04-07T08:13:00.028Z,8.00
2023-04-07T08:15:27.420Z,6.43
2023-04-07T08:17:55.525Z,6.23
2023-04-07T08:20:24.179Z,9.03
2023-04-07T08:22:51.177Z,7.43
2023-04-07T08:25:18.318Z,8.20
2023-04-07T08:27:45.705Z,6.20
2023-04-07T08:30:12.994Z,8.10
2023-04-07T08:32:44.659Z,7.30
2023-04-07T08:35:14.243Z,8.73
2023-04-07T08:37:43.694Z,7.27
2023-04-07T08:40:11.242Z,8.00
2023-04-07T08:42:45.285Z,6.77
2023-04-07T08:45:13.824Z,6.27
2023-04-07T08:47:44.488Z,7.13
2023-04-07T08:50:12.098Z,6.27
2023-04-07T08:52:48.850Z,5.83
2023-04-07T08:55:15.988Z,6.83
2023-04-07T08:57:43.623Z,5.50
2023-04-07T09:00:11.549Z,7.20
2023-04-07T09:02:40.114Z,5.63
2023-04-07T09:05:09.195Z,10.23
2023-04-07T09:07:37.978Z,7.07
2023-04-07T09:10:05.956Z,5.80
2023-04-07T09:12:34.543Z,5.40
2023-04-07T09:15:01.563Z,6.73
2023-04-07T09:17:29.788Z,5.73
2023-04-07T09:19:57.878Z,6.70
2023-04-07T09:22:47.633Z,5.83
2023-04-07T09:25:24.159Z,5.70
2023-04-07T09:28:01.923Z,5.63
2023-04-07T09:30:30.695Z,5.80
2023-04-07T09:32:59.204Z,6.43
2023-04-07T09:35:28.546Z,5.27
2023-04-07T09:38:09.890Z,7.93
2023-04-07T09:40:37.826Z,6.17
2023-04-07T09:43:06.113Z,5.60
2023-04-07T09:45:36.514Z,5.73
2023-04-07T09:48:20.398Z,7.43
2023-04-07T09:50:51.214Z,6.00
2023-04-07T09:53:20.313Z,8.77
2023-04-07T09:55:48.282Z,6.00
2023-04-07T09:58:16.933Z,8.40
2023-04-07T10:00:44.638Z,6.63
2023-04-07T10:03:12.479Z,6.13
2023-04-07T10:05:39.688Z,7.40
2023-04-07T10:08:06.961Z,6.20
2023-04-07T10:10:36.910Z,6.37
2023-04-07T10:13:06.296Z,5.90
2023-04-07T10:15:33.806Z,6.63
2023-04-07T10:18:01.100Z,7.47
2023-04-07T10:20:29.680Z,6.77
2023-04-07T10:23:09.297Z,6.93
2023-04-07T10:25:37.581Z,6.97
2023-04-07T10:28:08.420Z,7.50
2023-04-07T10:30:36.655Z,6.73
2023-04-07T10:33:03.776Z,6.80
2023-04-07T10:36:07.494Z,7.17
2023-04-07T10:38:34.725Z,5.90
2023-04-07T10:41:42.553Z,7.53
2023-04-07T10:44:31.459Z,5.77
2023-04-07T10:47:01.233Z,4.73
2023-04-07T10:49:28.108Z,7.27
2023-04-07T10:52:27.506Z,5.10
2023-04-07T10:55:32.215Z,5.23
2023-04-07T10:58:25.811Z,6.57
2023-04-07T11:01:02.198Z,5.33
2023-04-07T11:03:31.172Z,5.73
2023-04-07T11:06:04.810Z,5.40
2023-04-07T11:08:36.472Z,9.73
2023-04-07T11:11:09.597Z,5.13
2023-04-07T11:13:45.135Z,5.67
2023-04-07T11:16:12.852Z,6.07
2023-04-07T11:18:41.595Z,6.77
2023-04-07T11:21:09.643Z,5.57
2023-04-07T11:23:46.671Z,5.57
2023-04-07T11:26:15.894Z,6.80
2023-04-07T11:28:52.039Z,6.40
2023-04-07T11:31:31.648Z,5.93
2023-04-07T11:34:05.060Z,7.10
2023-04-07T11:36:39.022Z,5.87
2023-04-07T11:39:06.066Z,6.40
2023-04-07T11:41:34.019Z,6.47
2023-04-07T11:44:05.677Z,6.10
2023-04-07T11:46:32.625Z,6.33
2023-04-07T11:49:14.024Z,7.60
2023-04-07T11:51:43.134Z,6.73
2023-04-07T11:54:11.348Z,6.00
2023-04-07T11:56:48.468Z,6.00
2023-04-07T11:59:25.240Z,5.67
2023-04-07T12:01:56.036Z,6.73
2023-04-07T12:04:24.231Z,6.70
2023-04-07T12:06:51.933Z,6.90
2023-04-07T12:09:34.977Z,6.57
2023-04-07T12:12:03.665Z,6.80
2023-04-07T12:14:30.609Z,7.10
2023-04-07T12:16:58.372Z,8.23
2023-04-07T12:19:29.057Z,5.83
2023-04-07T12:21:57.031Z,8.80
2023-04-07T12:24:24.317Z,5.73
2023-04-07T12:26:51.246Z,5.50
2023-04-07T12:29:20.418Z,9.43
2023-04-07T12:31:50.669Z,7.73
2023-04-07T12:34:18.400Z,6.57
2023-04-07T12:36:45.382Z,13.13
2023-04-07T12:39:12.473Z,13.50
2023-04-07T12:41:40.004Z,13.27
2023-04-07T12:44:07.017Z,6.80
2023-04-07T12:46:34.333Z,5.97
2023-04-07T12:49:01.450Z,5.03
2023-04-07T12:51:28.653Z,12.23
2023-04-07T12:53:55.579Z,4.33
2023-04-07T12:56:25.536Z,5.83
2023-04-07T12:58:53.611Z,5.80
2023-04-07T13:01:21.543Z,4.90
2023-04-07T13:03:48.904Z,4.60
2023-04-07T13:06:16.271Z,3.83
2023-04-07T13:08:43.187Z,4.60
2023-04-07T13:11:10.106Z,3.53
2023-04-07T13:13:37.307Z,3.50
2023-04-07T13:16:04.563Z,5.03
2023-04-07T13:18:31.494Z,3.60
2023-04-07T13:21:33.775Z,7.00
2023-04-07T13:23:45.729Z,3.30
2023-04-07T13:26:12.638Z,3.13
2023-04-07T13:28:39.983Z,5.07
2023-04-07T13:31:07.968Z,3.10
2023-04-07T13:33:35.221Z,3.63
2023-04-07T13:36:02.328Z,3.30
2023-04-07T13:38:29.166Z,3.23
2023-04-07T13:40:55.946Z,3.20
2023-04-07T13:43:22.830Z,4.33
2023-04-07T13:45:49.994Z,3.37
2023-04-07T13:48:17.534Z,2.80
2023-04-07T13:50:44.577Z,2.90
2023-04-07T13:53:11.613Z,2.77
2023-04-07T13:55:39.178Z,3.50
2023-04-07T13:58:06.209Z,3.33
2023-04-07T14:00:35.913Z,3.00
2023-04-07T14:03:04.693Z,2.77
2023-04-07T14:05:31.994Z,3.40
2023-04-07T14:07:58.781Z,2.97
2023-04-07T14:10:26.010Z,3.10
2023-04-07T14:12:53.271Z,2.90
2023-04-07T14:15:20.379Z,2.13
2023-04-07T14:17:47.315Z,3.27
2023-04-07T14:20:14.377Z,11.23
2023-04-07T14:22:41.423Z,3.43
2023-04-07T14:25:08.349Z,3.43
2023-04-07T14:27:35.639Z,2.50
2023-04-07T14:30:05.963Z,3.13
2023-04-07T14:32:34.570Z,4.23
2023-04-07T14:35:02.133Z,3.93
2023-04-07T14:37:29.639Z,5.87
2023-04-07T14:42:26.997Z,3.50
2023-04-07T14:44:53.926Z,3.27
2023-04-07T14:47:21.233Z,4.43
2023-04-07T14:49:51.861Z,3.13
2023-04-07T14:52:22.144Z,4.87
2023-04-07T14:54:49.323Z,3.00
2023-04-07T14:57:17.140Z,3.30
2023-04-07T14:59:44.289Z,3.77
2023-04-07T15:02:13.643Z,3.37
2023-04-07T15:04:43.687Z,4.70
2023-04-07T15:07:10.792Z,4.90
2023-04-07T15:09:37.798Z,3.87
2023-04-07T15:12:05.413Z,5.63
2023-04-07T15:14:32.390Z,4.33
2023-04-07T15:16:59.206Z,4.67
2023-04-07T15:19:26.067Z,4.60
2023-04-07T15:21:53.050Z,5.13
2023-04-07T15:24:21.720Z,4.97
2023-04-07T15:26:49.754Z,5.93
2023-04-07T15:29:16.689Z,4.40
2023-04-07T15:31:43.773Z,4.93
2023-04-07T15:34:12.103Z,5.57
2023-04-07T15:36:38.970Z,4.93
2023-04-07T15:39:09.995Z,6.00
2023-04-07T15:41:37.204Z,4.97
2023-04-07T15:44:04.594Z,6.23
2023-04-07T15:46:34.614Z,5.97
2023-04-07T15:49:02.020Z,6.23
2023-04-07T15:51:29.837Z,6.77
2023-04-07T15:53:56.889Z,6.53
2023-04-07T15:56:25.052Z,5.90
2023-04-07T15:58:52.154Z,5.87
2023-04-07T16:01:19.454Z,7.67
2023-04-07T16:03:47.960Z,5.50
2023-04-07T16:06:15.590Z,5.70
2023-04-07T16:08:42.555Z,5.10
2023-04-07T16:11:09.597Z,7.80
2023-04-07T16:13:36.453Z,7.13
2023-04-07T16:16:03.572Z,7.13
2023-04-07T16:18:30.578Z,7.03
2023-04-07T16:20:57.440Z,6.57
2023-04-07T16:23:24.701Z,7.43
2023-04-07T16:25:51.567Z,8.17
2023-04-07T16:28:18.557Z,6.73
2023-04-07T16:30:45.560Z,7.33
2023-04-07T16:33:13.095Z,6.90
2023-04-07T16:35:40.250Z,6.50
2023-04-07T16:38:07.220Z,6.80
2023-04-07T16:40:34.401Z,8.10
2023-04-07T16:43:01.779Z,6.83
2023-04-07T16:45:28.863Z,6.60
2023-04-07T16:47:56.311Z,6.87
2023-04-07T16:50:23.320Z,7.10
2023-04-07T16:52:50.618Z,7.83
2023-04-07T16:55:17.819Z,7.87
2023-04-07T16:57:44.677Z,6.47
2023-04-07T17:00:12.422Z,5.90
2023-04-07T17:02:39.471Z,6.70
2023-04-07T17:05:06.851Z,5.93
2023-04-07T17:07:33.676Z,7.77
2023-04-07T17:10:00.806Z,6.20
2023-04-07T17:12:28.216Z,8.27
2023-04-07T17:14:55.069Z,7.07
2023-04-07T17:17:22.238Z,5.57
2023-04-07T17:19:49.105Z,5.83
2023-04-07T17:22:16.469Z,6.53
2023-04-07T17:24:43.935Z,6.53
2023-04-07T17:27:10.896Z,5.90
2023-04-07T17:29:38.153Z,6.13
2023-04-07T17:32:05.562Z,12.00
2023-04-07T17:34:32.703Z,6.70
2023-04-07T17:36:59.853Z,7.07
2023-04-07T17:39:26.988Z,6.17
2023-04-07T17:41:53.968Z,7.63
2023-04-07T17:44:21.281Z,6.17
2023-04-07T17:46:49.099Z,6.73
2023-04-07T17:49:16.156Z,6.70
2023-04-07T17:51:43.163Z,6.93
2023-04-07T17:54:10.020Z,6.67
2023-04-07T17:56:38.304Z,6.60
2023-04-07T17:59:05.252Z,7.37
2023-04-07T18:01:32.497Z,8.50
2023-04-07T18:04:00.527Z,10.13
2023-04-07T18:06:28.717Z,13.10
2023-04-07T18:08:56.109Z,13.40
2023-04-07T18:11:23.077Z,13.70
2023-04-07T18:13:50.290Z,15.73
2023-04-07T18:16:22.078Z,13.73
2023-04-07T18:18:49.721Z,12.70
2023-04-07T18:21:16.743Z,13.17
2023-04-07T18:23:43.790Z,14.17
2023-04-07T18:26:13.886Z,14.43
2023-04-07T18:28:40.892Z,13.27
2023-04-07T18:31:08.435Z,16.70
2023-04-07T18:33:36.493Z,13.70
2023-04-07T18:36:07.295Z,14.57
2023-04-07T18:38:36.333Z,12.67
2023-04-07T18:41:03.981Z,12.73
2023-04-07T18:43:31.624Z,13.43
2023-04-07T18:45:59.869Z,16.23
2023-04-07T18:48:27.415Z,13.63
2023-04-07T18:50:55.743Z,14.13
2023-04-07T18:53:24.619Z,15.23
2023-04-07T18:55:52.714Z,17.63
2023-04-07T18:58:20.340Z,19.47
2023-04-07T19:00:50.206Z,20.33
2023-04-07T19:03:17.792Z,20.37
2023-04-07T19:05:47.430Z,18.53
2023-04-07T19:08:16.083Z,20.10
2023-04-07T19:10:46.449Z,19.33
2023-04-07T19:13:15.916Z,19.33
2023-04-07T19:15:46.528Z,18.33
2023-04-07T19:18:13.765Z,18.27
2023-04-07T19:20:40.782Z,21.17
2023-04-07T19:23:08.134Z,19.33
2023-04-07T19:25:35.314Z,18.37
2023-04-07T19:28:03.352Z,16.00
2023-04-07T19:30:30.516Z,18.40
2023-04-07T19:32:58.011Z,18.90
2023-04-07T19:35:25.225Z,21.07
2023-04-07T19:37:52.714Z,20.23
2023-04-07T19:40:20.017Z,22.13
2023-04-07T19:42:47.352Z,20.53
2023-04-07T19:45:14.585Z,19.10
2023-04-07T19:47:42.593Z,19.77
2023-04-07T19:50:11.448Z,18.23
2023-04-07T19:52:39.097Z,19.43
2023-04-07T19:55:07.873Z,21.40
2023-04-07T19:57:40.494Z,18.60
2023-04-07T20:00:11.041Z,16.47
2023-04-07T20:02:41.468Z,14.77
2023-04-07T20:05:09.115Z,14.53
2023-04-07T20:07:36.007Z,16.53
2023-04-07T20:10:04.116Z,12.97
2023-04-07T20:12:31.052Z,13.80
2023-04-07T20:14:58.039Z,13.73
2023-04-07T20:17:24.998Z,11.47
2023-04-07T20:19:55.862Z,11.10
2023-04-07T20:22:23.178Z,11.53
2023-04-07T20:24:50.077Z,11.70
2023-04-07T20:27:18.524Z,10.07
2023-04-07T20:29:45.411Z,9.80
2023-04-07T20:32:12.493Z,10.43
2023-04-07T20:34:39.606Z,9.27
2023-04-07T20:37:06.726Z,9.20
2023-04-07T20:39:33.757Z,9.57
2023-04-07T20:42:00.632Z,9.60
2023-04-07T20:44:29.734Z,11.77
2023-04-07T20:46:56.961Z,9.57
2023-04-07T20:49:23.973Z,8.50
2023-04-07T20:51:53.906Z,9.10
2023-04-07T20:54:20.720Z,11.03
2023-04-07T20:56:47.695Z,8.83
2023-04-07T20:59:14.738Z,10.33
2023-04-07T21:01:41.873Z,9.00
2023-04-07T21:04:10.065Z,10.37
2023-04-07T21:06:37.428Z,10.17
2023-04-07T21:09:06.067Z,10.90
2023-04-07T21:11:33.015Z,11.70
2023-04-07T21:14:00.401Z,10.33
2023-04-07T21:16:27.622Z,12.03
2023-04-07T21:18:54.617Z,11.77
2023-04-07T21:21:23.418Z,14.90
2023-04-07T21:23:50.585Z,13.67
2023-04-07T21:26:17.548Z,14.13
2023-04-07T21:28:44.431Z,15.80
2023-04-07T21:31:11.632Z,15.90
2023-04-07T21:33:39.560Z,17.27
2023-04-07T21:36:06.886Z,19.50
2023-04-07T21:38:33.932Z,21.57
2023-04-07T21:41:01.191Z,21.60
2023-04-07T21:43:29.055Z,24.37
2023-04-07T21:45:56.893Z,25.63
2023-04-07T21:48:24.848Z,23.10
2023-04-07T21:50:52.566Z,26.87
2023-04-07T21:53:19.721Z,27.03
2023-04-07T21:55:46.602Z,26.97
2023-04-07T21:58:13.549Z,26.23
2023-04-07T22:00:40.675Z,26.13
2023-04-07T22:03:08.042Z,25.57
2023-04-07T22:05:35.138Z,26.47
2023-04-07T22:08:03.539Z,27.00
2023-04-07T22:10:30.781Z,28.80
2023-04-07T22:12:57.837Z,29.17
2023-04-07T22:15:25.304Z,27.17
2023-04-07T22:17:52.325Z,26.97
2023-04-07T22:20:19.514Z,27.83
2023-04-07T22:22:46.688Z,28.47
2023-04-07T22:25:13.770Z,23.17
2023-04-07T22:27:40.823Z,30.83
2023-04-07T22:30:10.280Z,26.17
2023-04-07T22:32:37.233Z,26.00
2023-04-07T22:35:04.820Z,25.43
2023-04-07T22:37:31.702Z,22.40
2023-04-07T22:39:58.695Z,23.50
2023-04-07T22:42:25.747Z,29.60
2023-04-07T22:44:53.081Z,21.13
2023-04-07T22:47:21.865Z,27.50
2023-04-07T22:49:48.928Z,23.63
2023-04-07T22:52:15.909Z,29.77
2023-04-07T22:54:42.831Z,22.67
2023-04-07T22:57:09.986Z,21.50
2023-04-07T22:59:40.050Z,22.67
2023-04-07T23:02:07.097Z,18.97
2023-04-07T23:04:34.297Z,21.63
2023-04-07T23:07:01.660Z,22.03
2023-04-07T23:09:28.754Z,22.77
2023-04-07T23:11:57.239Z,19.77
2023-04-07T23:14:24.026Z,20.37
2023-04-07T23:16:51.404Z,17.97
2023-04-07T23:19:18.497Z,19.33
2023-04-07T23:21:45.625Z,19.37
2023-04-07T23:24:12.530Z,20.67
2023-04-07T23:26:39.406Z,19.20
2023-04-07T23:29:06.290Z,18.87
2023-04-07T23:31:33.346Z,18.80
2023-04-07T23:34:00.275Z,18.40
2023-04-07T23:36:27.465Z,15.67
2023-04-07T23:38:59.283Z,20.90
2023-04-07T23:41:26.335Z,21.73
2023-04-07T23:43:53.200Z,18.30
2023-04-07T23:46:20.130Z,20.67
2023-04-07T23:48:47.137Z,16.60
2023-04-07T23:51:14.884Z,16.80
2023-04-07T23:53:41.862Z,23.00
2023-04-07T23:56:09.423Z,18.10
2023-04-07T23:58:36.434Z,18.30
